Wrangell, AK

9:23 PM AKDT on August 28, 2014 (GMT -0800)
Wrangell | Change Station
CLOSE
Current Station
Airport
Location: Wrangell,
Elevation: 43 ft
Nearby Weather Stations

Elev 43 ft 56.48 °N, 132.37 °W | Updated 7 minutes ago

Overcast
Overcast
55 °F
Feels Like 55 °F
N
8
Wind Variable Wind from SE

Today
High -- | Low -- °F
--% Chance of Precip.
Yesterday
High -- | Low -- °F
Precip. -- in
5:45 AM 7:54 PM
Waxing Crescent, 12% visible
Pressure 29.88 in
Visibility 10.0 miles
Clouds Scattered Clouds 3200 ft
Mostly Cloudy 5000 ft
Overcast 6000 ft
Dew Point 48 °F
Humidity 77%
Rainfall 0.05 in
Snow Depth Not available.
UV 0 out of 12
Pollen Not available.
Air Quality Not available.
Flu Activity Not available.
METAR PAWG 290516Z 13007KT 10SM SCT032 BKN050 OVC060 13/09 A2988 RMK AO1 WEA:-RA MJ

More Conditions Fewer Conditions

Pressure 29.88 in
Visibility 10.0 miles
Clouds Scattered Clouds 3200 ft
Mostly Cloudy 5000 ft
Overcast 6000 ft
Dew Point 48 °F
Humidity 77%
Rainfall 0.05 in
Snow Depth Not available.
UV 0 out of 12
Pollen Not available.
Air Quality Not available.
Flu Activity Not available.
METAR PAWG 290516Z 13007KT 10SM SCT032 BKN050 OVC060 13/09 A2988 RMK AO1 WEA:-RA MJ

More Conditions Fewer Conditions

10-Day Weather Forecast

Almanac

Astronomy

Aug. 28, 2014 Rise Set
Actual Time 5:45 AM AKDT 7:54 PM AKDT
Civil Twilight 5:04 AM AKDT 8:35 PM AKDT
Nautical Twilight 4:12 AM AKDT 9:26 PM AKDT
Astronomical Twilight 3:08 AM AKDT 10:29 PM AKDT
Moon 9:26 AM AKDT (8/28) 8:36 PM AKDT (8/28)
Length of Visible Light 15h 30m
Length of Day
14h 09m
Tomorrow will be 4m 36s shorter.
Waxing Crescent, 12% of the Moon is Illuminated
Aug 29
Waxing Crescent
Sep 2
First Quarter
Sep 8
Full
Sep 15
Last Quarter
Sep 24
New

Yesterday's Extremes

State Highs State Lows

Community

WunderPhotos

Upload Photos

1,748,192 photos uploaded!

Nearby

Snow Depth

Station Depth Elevation
Long Lake 0 in 820 ft
Upper Tsaina River 0 in 1750 ft
Moraine 0 in 2100 ft
Grandview 16 in 1100 ft
Grouse Creek Divide 0 in 700 ft

Earthquake Activity

City Distance Mag. Time & Date
No recent earthquake activity has been reported nearby.
Minimum magnitude displayed is 2.5.

Coastal Water Temperatures

Place Temperature
No Stations Reporting

Nearby Weather Stations